sensor_id;sensor_type;location;lat;lon;timestamp;P1;durP1;ratioP1;P2;durP2;ratioP2
19569;SDS011;9931;51.458;7.256;2023-06-26T00:01:29;25.48;;;2.45;;
19569;SDS011;9931;51.458;7.256;2023-06-26T00:03:56;17.77;;;1.95;;
19569;SDS011;9931;51.458;7.256;2023-06-26T00:06:21;18.83;;;2.15;;
19569;SDS011;9931;51.458;7.256;2023-06-26T00:08:49;17.90;;;2.05;;
19569;SDS011;9931;51.458;7.256;2023-06-26T00:11:15;17.83;;;2.05;;
19569;SDS011;9931;51.458;7.256;2023-06-26T00:13:40;17.70;;;2.05;;
19569;SDS011;9931;51.458;7.256;2023-06-26T00:16:05;19.00;;;2.17;;
19569;SDS011;9931;51.458;7.256;2023-06-26T00:18:30;15.97;;;1.73;;
19569;SDS011;9931;51.458;7.256;2023-06-26T00:20:55;19.17;;;1.93;;
19569;SDS011;9931;51.458;7.256;2023-06-26T00:23:21;14.07;;;1.53;;
19569;SDS011;9931;51.458;7.256;2023-06-26T00:25:46;25.92;;;2.42;;
19569;SDS011;9931;51.458;7.256;2023-06-26T00:28:11;19.73;;;1.95;;
19569;SDS011;9931;51.458;7.256;2023-06-26T00:30:37;15.40;;;1.67;;
19569;SDS011;9931;51.458;7.256;2023-06-26T00:33:02;18.70;;;1.85;;
19569;SDS011;9931;51.458;7.256;2023-06-26T00:35:27;14.17;;;1.50;;
19569;SDS011;9931;51.458;7.256;2023-06-26T00:37:52;13.93;;;1.45;;
19569;SDS011;9931;51.458;7.256;2023-06-26T00:40:18;18.83;;;1.83;;
19569;SDS011;9931;51.458;7.256;2023-06-26T00:42:43;13.07;;;1.42;;
19569;SDS011;9931;51.458;7.256;2023-06-26T00:45:08;22.23;;;2.05;;
19569;SDS011;9931;51.458;7.256;2023-06-26T00:47:33;36.30;;;2.77;;
19569;SDS011;9931;51.458;7.256;2023-06-26T00:49:59;13.93;;;1.42;;
19569;SDS011;9931;51.458;7.256;2023-06-26T00:52:24;15.55;;;1.50;;
19569;SDS011;9931;51.458;7.256;2023-06-26T00:54:50;7.60;;;1.02;;
19569;SDS011;9931;51.458;7.256;2023-06-26T00:57:16;20.60;;;1.90;;
19569;SDS011;9931;51.458;7.256;2023-06-26T00:59:41;17.70;;;1.67;;
19569;SDS011;9931;51.458;7.256;2023-06-26T01:02:07;16.90;;;1.65;;
19569;SDS011;9931;51.458;7.256;2023-06-26T01:04:32;7.85;;;1.00;;
19569;SDS011;9931;51.458;7.256;2023-06-26T01:06:57;15.15;;;1.55;;
19569;SDS011;9931;51.458;7.256;2023-06-26T01:09:23;17.48;;;1.70;;
19569;SDS011;9931;51.458;7.256;2023-06-26T01:11:49;17.40;;;1.75;;
19569;SDS011;9931;51.458;7.256;2023-06-26T01:14:15;21.23;;;1.95;;
19569;SDS011;9931;51.458;7.256;2023-06-26T01:16:40;16.65;;;1.50;;
19569;SDS011;9931;51.458;7.256;2023-06-26T01:19:09;16.15;;;1.60;;
19569;SDS011;9931;51.458;7.256;2023-06-26T01:21:35;20.27;;;1.92;;
19569;SDS011;9931;51.458;7.256;2023-06-26T01:24:07;14.98;;;1.40;;
19569;SDS011;9931;51.458;7.256;2023-06-26T01:26:35;20.50;;;1.88;;
19569;SDS011;9931;51.458;7.256;2023-06-26T01:29:02;16.40;;;1.55;;
19569;SDS011;9931;51.458;7.256;2023-06-26T01:31:27;20.80;;;1.80;;
19569;SDS011;9931;51.458;7.256;2023-06-26T01:33:53;17.52;;;1.60;;
19569;SDS011;9931;51.458;7.256;2023-06-26T01:36:19;18.55;;;1.80;;
19569;SDS011;9931;51.458;7.256;2023-06-26T01:38:44;16.08;;;1.50;;
19569;SDS011;9931;51.458;7.256;2023-06-26T01:41:10;20.33;;;1.83;;
19569;SDS011;9931;51.458;7.256;2023-06-26T01:46:04;60.55;;;4.65;;
19569;SDS011;9931;51.458;7.256;2023-06-26T01:48:32;12.40;;;1.30;;
19569;SDS011;9931;51.458;7.256;2023-06-26T01:50:58;17.45;;;1.65;;
19569;SDS011;9931;51.458;7.256;2023-06-26T01:53:25;19.17;;;1.83;;
19569;SDS011;9931;51.458;7.256;2023-06-26T01:56:12;64.60;;;4.97;;
19569;SDS011;9931;51.458;7.256;2023-06-26T01:58:38;15.40;;;1.50;;
19569;SDS011;9931;51.458;7.256;2023-06-26T02:01:05;15.80;;;1.52;;
19569;SDS011;9931;51.458;7.256;2023-06-26T02:03:30;16.13;;;1.43;;
19569;SDS011;9931;51.458;7.256;2023-06-26T02:05:55;52.20;;;3.65;;
19569;SDS011;9931;51.458;7.256;2023-06-26T02:08:20;21.37;;;2.00;;
19569;SDS011;9931;51.458;7.256;2023-06-26T02:10:47;15.15;;;1.48;;
19569;SDS011;9931;51.458;7.256;2023-06-26T02:13:12;17.53;;;1.60;;
19569;SDS011;9931;51.458;7.256;2023-06-26T02:15:39;14.43;;;1.43;;
19569;SDS011;9931;51.458;7.256;2023-06-26T02:18:04;22.13;;;1.95;;
19569;SDS011;9931;51.458;7.256;2023-06-26T02:20:29;17.35;;;6.25;;
19569;SDS011;9931;51.458;7.256;2023-06-26T02:22:54;14.33;;;1.37;;
19569;SDS011;9931;51.458;7.256;2023-06-26T02:25:19;15.83;;;1.53;;
19569;SDS011;9931;51.458;7.256;2023-06-26T02:27:46;16.02;;;1.52;;
19569;SDS011;9931;51.458;7.256;2023-06-26T02:30:11;4.57;;;0.60;;
19569;SDS011;9931;51.458;7.256;2023-06-26T02:32:36;11.80;;;1.15;;
19569;SDS011;9931;51.458;7.256;2023-06-26T02:35:01;16.02;;;1.48;;
19569;SDS011;9931;51.458;7.256;2023-06-26T02:37:27;38.05;;;2.78;;
19569;SDS011;9931;51.458;7.256;2023-06-26T02:39:52;14.95;;;1.42;;
19569;SDS011;9931;51.458;7.256;2023-06-26T02:42:17;19.65;;;1.73;;
19569;SDS011;9931;51.458;7.256;2023-06-26T02:44:42;14.98;;;1.45;;
19569;SDS011;9931;51.458;7.256;2023-06-26T02:47:07;16.53;;;1.73;;
19569;SDS011;9931;51.458;7.256;2023-06-26T02:49:33;14.83;;;1.33;;
19569;SDS011;9931;51.458;7.256;2023-06-26T02:51:58;15.13;;;1.47;;
19569;SDS011;9931;51.458;7.256;2023-06-26T02:54:23;20.63;;;1.80;;
19569;SDS011;9931;51.458;7.256;2023-06-26T02:56:48;6.47;;;0.73;;
19569;SDS011;9931;51.458;7.256;2023-06-26T02:59:14;16.63;;;1.52;;
19569;SDS011;9931;51.458;7.256;2023-06-26T03:01:39;17.40;;;1.55;;
19569;SDS011;9931;51.458;7.256;2023-06-26T03:04:04;17.93;;;1.60;;
19569;SDS011;9931;51.458;7.256;2023-06-26T03:06:29;19.10;;;1.70;;
19569;SDS011;9931;51.458;7.256;2023-06-26T03:08:54;18.67;;;1.60;;
19569;SDS011;9931;51.458;7.256;2023-06-26T03:11:20;19.03;;;1.73;;
19569;SDS011;9931;51.458;7.256;2023-06-26T03:13:45;14.10;;;1.43;;
19569;SDS011;9931;51.458;7.256;2023-06-26T03:16:10;25.15;;;2.05;;
19569;SDS011;9931;51.458;7.256;2023-06-26T03:18:35;5.47;;;0.70;;
19569;SDS011;9931;51.458;7.256;2023-06-26T03:21:01;16.37;;;1.50;;
19569;SDS011;9931;51.458;7.256;2023-06-26T03:23:26;16.67;;;1.60;;
19569;SDS011;9931;51.458;7.256;2023-06-26T03:25:51;60.65;;;4.70;;
19569;SDS011;9931;51.458;7.256;2023-06-26T03:28:16;22.97;;;2.00;;
19569;SDS011;9931;51.458;7.256;2023-06-26T03:30:42;13.90;;;1.30;;
19569;SDS011;9931;51.458;7.256;2023-06-26T03:33:07;19.08;;;1.65;;
19569;SDS011;9931;51.458;7.256;2023-06-26T03:35:33;13.73;;;1.20;;
19569;SDS011;9931;51.458;7.256;2023-06-26T03:37:58;16.30;;;1.52;;
19569;SDS011;9931;51.458;7.256;2023-06-26T03:40:23;17.38;;;1.55;;
19569;SDS011;9931;51.458;7.256;2023-06-26T03:42:49;10.40;;;1.17;;
19569;SDS011;9931;51.458;7.256;2023-06-26T03:45:14;21.40;;;1.90;;
19569;SDS011;9931;51.458;7.256;2023-06-26T03:47:39;16.30;;;1.50;;
19569;SDS011;9931;51.458;7.256;2023-06-26T03:50:05;16.67;;;1.57;;
19569;SDS011;9931;51.458;7.256;2023-06-26T03:52:30;15.32;;;1.38;;
19569;SDS011;9931;51.458;7.256;2023-06-26T03:54:56;4.35;;;0.60;;
19569;SDS011;9931;51.458;7.256;2023-06-26T03:57:22;24.63;;;2.05;;
19569;SDS011;9931;51.458;7.256;2023-06-26T03:59:47;16.20;;;1.57;;
19569;SDS011;9931;51.458;7.256;2023-06-26T04:02:12;16.15;;;1.52;;
19569;SDS011;9931;51.458;7.256;2023-06-26T04:04:37;14.50;;;1.33;;
19569;SDS011;9931;51.458;7.256;2023-06-26T04:07:02;17.23;;;1.57;;
19569;SDS011;9931;51.458;7.256;2023-06-26T04:09:28;24.33;;;2.05;;
19569;SDS011;9931;51.458;7.256;2023-06-26T04:11:53;4.33;;;0.60;;
19569;SDS011;9931;51.458;7.256;2023-06-26T04:14:18;19.55;;;1.83;;
19569;SDS011;9931;51.458;7.256;2023-06-26T04:16:43;16.60;;;1.57;;
19569;SDS011;9931;51.458;7.256;2023-06-26T04:19:09;20.87;;;1.80;;
19569;SDS011;9931;51.458;7.256;2023-06-26T04:21:35;14.75;;;1.38;;
19569;SDS011;9931;51.458;7.256;2023-06-26T04:24:00;18.77;;;1.67;;
19569;SDS011;9931;51.458;7.256;2023-06-26T04:26:25;25.15;;;2.05;;
19569;SDS011;9931;51.458;7.256;2023-06-26T04:28:50;13.23;;;1.27;;
19569;SDS011;9931;51.458;7.256;2023-06-26T04:31:15;17.50;;;1.63;;
19569;SDS011;9931;51.458;7.256;2023-06-26T04:33:41;17.43;;;1.60;;
19569;SDS011;9931;51.458;7.256;2023-06-26T04:36:06;21.83;;;1.90;;
19569;SDS011;9931;51.458;7.256;2023-06-26T04:38:34;16.40;;;1.42;;
19569;SDS011;9931;51.458;7.256;2023-06-26T04:41:00;18.60;;;1.63;;
19569;SDS011;9931;51.458;7.256;2023-06-26T04:43:25;17.73;;;1.58;;
19569;SDS011;9931;51.458;7.256;2023-06-26T04:45:51;48.88;;;3.80;;
19569;SDS011;9931;51.458;7.256;2023-06-26T04:48:16;26.57;;;2.17;;
19569;SDS011;9931;51.458;7.256;2023-06-26T04:50:41;36.00;;;2.57;;
19569;SDS011;9931;51.458;7.256;2023-06-26T04:53:06;16.13;;;1.45;;
19569;SDS011;9931;51.458;7.256;2023-06-26T04:55:32;13.15;;;1.23;;
19569;SDS011;9931;51.458;7.256;2023-06-26T04:57:57;15.90;;;1.40;;
19569;SDS011;9931;51.458;7.256;2023-06-26T05:00:22;19.52;;;1.70;;
19569;SDS011;9931;51.458;7.256;2023-06-26T05:02:49;18.35;;;1.63;;
19569;SDS011;9931;51.458;7.256;2023-06-26T05:05:24;17.48;;;1.50;;
19569;SDS011;9931;51.458;7.256;2023-06-26T05:07:49;19.70;;;1.67;;
19569;SDS011;9931;51.458;7.256;2023-06-26T05:10:14;19.50;;;1.70;;
19569;SDS011;9931;51.458;7.256;2023-06-26T05:12:39;31.88;;;2.55;;
19569;SDS011;9931;51.458;7.256;2023-06-26T05:15:05;14.97;;;1.43;;
19569;SDS011;9931;51.458;7.256;2023-06-26T05:17:30;38.50;;;2.83;;
19569;SDS011;9931;51.458;7.256;2023-06-26T05:19:55;15.10;;;1.47;;
19569;SDS011;9931;51.458;7.256;2023-06-26T05:22:20;18.10;;;1.53;;
19569;SDS011;9931;51.458;7.256;2023-06-26T05:24:46;2.45;;;0.50;;
19569;SDS011;9931;51.458;7.256;2023-06-26T05:27:11;19.10;;;1.70;;
19569;SDS011;9931;51.458;7.256;2023-06-26T05:29:44;16.88;;;1.52;;
19569;SDS011;9931;51.458;7.256;2023-06-26T05:32:09;23.55;;;2.05;;
19569;SDS011;9931;51.458;7.256;2023-06-26T05:34:35;22.50;;;1.92;;
19569;SDS011;9931;51.458;7.256;2023-06-26T05:37:00;15.48;;;1.38;;
19569;SDS011;9931;51.458;7.256;2023-06-26T05:39:26;23.60;;;1.98;;
19569;SDS011;9931;51.458;7.256;2023-06-26T05:41:52;21.42;;;1.83;;
19569;SDS011;9931;51.458;7.256;2023-06-26T05:44:17;19.63;;;1.80;;
19569;SDS011;9931;51.458;7.256;2023-06-26T05:46:43;18.20;;;1.73;;
19569;SDS011;9931;51.458;7.256;2023-06-26T05:49:08;23.90;;;2.22;;
19569;SDS011;9931;51.458;7.256;2023-06-26T05:51:33;28.93;;;2.47;;
19569;SDS011;9931;51.458;7.256;2023-06-26T05:53:59;30.63;;;2.50;;
19569;SDS011;9931;51.458;7.256;2023-06-26T05:56:24;16.48;;;1.73;;
19569;SDS011;9931;51.458;7.256;2023-06-26T05:58:50;24.98;;;2.38;;
19569;SDS011;9931;51.458;7.256;2023-06-26T06:01:16;41.75;;;3.55;;
19569;SDS011;9931;51.458;7.256;2023-06-26T06:03:41;23.10;;;2.10;;
19569;SDS011;9931;51.458;7.256;2023-06-26T06:06:06;73.87;;;5.67;;
19569;SDS011;9931;51.458;7.256;2023-06-26T06:08:31;23.77;;;2.10;;
19569;SDS011;9931;51.458;7.256;2023-06-26T06:10:56;26.15;;;2.17;;
19569;SDS011;9931;51.458;7.256;2023-06-26T06:13:22;18.55;;;1.60;;
19569;SDS011;9931;51.458;7.256;2023-06-26T06:15:47;8.30;;;1.00;;
19569;SDS011;9931;51.458;7.256;2023-06-26T06:18:12;8.82;;;0.95;;
19569;SDS011;9931;51.458;7.256;2023-06-26T06:20:37;16.37;;;1.57;;
19569;SDS011;9931;51.458;7.256;2023-06-26T06:23:02;19.15;;;1.70;;
19569;SDS011;9931;51.458;7.256;2023-06-26T06:25:28;16.55;;;1.88;;
19569;SDS011;9931;51.458;7.256;2023-06-26T06:27:53;17.37;;;1.77;;
19569;SDS011;9931;51.458;7.256;2023-06-26T06:30:18;16.97;;;1.80;;
19569;SDS011;9931;51.458;7.256;2023-06-26T06:32:43;14.68;;;1.58;;
19569;SDS011;9931;51.458;7.256;2023-06-26T06:35:09;14.10;;;1.58;;
19569;SDS011;9931;51.458;7.256;2023-06-26T06:37:37;19.77;;;2.25;;
19569;SDS011;9931;51.458;7.256;2023-06-26T06:40:02;16.75;;;1.98;;
19569;SDS011;9931;51.458;7.256;2023-06-26T06:42:28;15.65;;;1.98;;
19569;SDS011;9931;51.458;7.256;2023-06-26T06:44:54;15.90;;;2.03;;
19569;SDS011;9931;51.458;7.256;2023-06-26T06:47:19;24.57;;;2.83;;
19569;SDS011;9931;51.458;7.256;2023-06-26T06:49:44;15.20;;;1.97;;
19569;SDS011;9931;51.458;7.256;2023-06-26T06:52:09;15.00;;;3.23;;
19569;SDS011;9931;51.458;7.256;2023-06-26T06:54:50;17.77;;;2.47;;
19569;SDS011;9931;51.458;7.256;2023-06-26T06:57:15;23.95;;;2.95;;
19569;SDS011;9931;51.458;7.256;2023-06-26T06:59:40;18.83;;;2.20;;
19569;SDS011;9931;51.458;7.256;2023-06-26T07:02:07;17.40;;;1.83;;
19569;SDS011;9931;51.458;7.256;2023-06-26T07:04:32;16.73;;;1.73;;
19569;SDS011;9931;51.458;7.256;2023-06-26T07:06:57;16.77;;;1.60;;
19569;SDS011;9931;51.458;7.256;2023-06-26T07:09:22;21.23;;;1.93;;
19569;SDS011;9931;51.458;7.256;2023-06-26T07:11:48;13.17;;;1.47;;
19569;SDS011;9931;51.458;7.256;2023-06-26T07:14:13;23.60;;;2.10;;
19569;SDS011;9931;51.458;7.256;2023-06-26T07:16:38;22.03;;;2.00;;
19569;SDS011;9931;51.458;7.256;2023-06-26T07:19:03;15.27;;;1.53;;
19569;SDS011;9931;51.458;7.256;2023-06-26T07:21:28;20.67;;;1.90;;
19569;SDS011;9931;51.458;7.256;2023-06-26T07:23:53;18.60;;;1.73;;
19569;SDS011;9931;51.458;7.256;2023-06-26T07:26:19;23.25;;;2.35;;
19569;SDS011;9931;51.458;7.256;2023-06-26T07:28:44;12.85;;;1.33;;
19569;SDS011;9931;51.458;7.256;2023-06-26T07:31:09;19.00;;;1.97;;
19569;SDS011;9931;51.458;7.256;2023-06-26T07:33:34;17.67;;;1.87;;
19569;SDS011;9931;51.458;7.256;2023-06-26T07:36:00;51.57;;;3.93;;
19569;SDS011;9931;51.458;7.256;2023-06-26T07:38:25;21.73;;;2.10;;
19569;SDS011;9931;51.458;7.256;2023-06-26T07:40:50;22.98;;;2.20;;
19569;SDS011;9931;51.458;7.256;2023-06-26T07:43:16;11.77;;;1.48;;
19569;SDS011;9931;51.458;7.256;2023-06-26T07:45:41;17.47;;;1.73;;
19569;SDS011;9931;51.458;7.256;2023-06-26T07:48:06;23.02;;;2.17;;
19569;SDS011;9931;51.458;7.256;2023-06-26T07:50:32;15.55;;;1.58;;
19569;SDS011;9931;51.458;7.256;2023-06-26T07:52:57;22.63;;;2.13;;
19569;SDS011;9931;51.458;7.256;2023-06-26T07:55:23;22.02;;;2.30;;
19569;SDS011;9931;51.458;7.256;2023-06-26T07:57:48;5.45;;;1.13;;
19569;SDS011;9931;51.458;7.256;2023-06-26T08:00:15;16.38;;;1.90;;
19569;SDS011;9931;51.458;7.256;2023-06-26T08:02:41;8.45;;;1.42;;
19569;SDS011;9931;51.458;7.256;2023-06-26T08:05:06;16.25;;;1.98;;
19569;SDS011;9931;51.458;7.256;2023-06-26T08:07:31;40.38;;;3.13;;
19569;SDS011;9931;51.458;7.256;2023-06-26T08:09:57;18.97;;;2.03;;
19569;SDS011;9931;51.458;7.256;2023-06-26T08:12:22;17.60;;;1.93;;
19569;SDS011;9931;51.458;7.256;2023-06-26T08:14:47;26.03;;;2.40;;
19569;SDS011;9931;51.458;7.256;2023-06-26T08:17:12;16.43;;;1.67;;
19569;SDS011;9931;51.458;7.256;2023-06-26T08:19:37;14.33;;;1.63;;
19569;SDS011;9931;51.458;7.256;2023-06-26T08:22:03;20.25;;;1.98;;
19569;SDS011;9931;51.458;7.256;2023-06-26T08:24:28;15.70;;;1.60;;
19569;SDS011;9931;51.458;7.256;2023-06-26T08:26:53;14.30;;;1.65;;
19569;SDS011;9931;51.458;7.256;2023-06-26T08:29:18;13.70;;;1.65;;
19569;SDS011;9931;51.458;7.256;2023-06-26T08:31:44;5.22;;;1.10;;
19569;SDS011;9931;51.458;7.256;2023-06-26T08:34:09;15.30;;;1.83;;
19569;SDS011;9931;51.458;7.256;2023-06-26T08:36:34;14.27;;;1.55;;
19569;SDS011;9931;51.458;7.256;2023-06-26T08:38:59;16.42;;;1.75;;
19569;SDS011;9931;51.458;7.256;2023-06-26T08:41:25;17.92;;;2.05;;
19569;SDS011;9931;51.458;7.256;2023-06-26T08:43:50;15.85;;;2.08;;
19569;SDS011;9931;51.458;7.256;2023-06-26T08:46:17;7.55;;;1.25;;
19569;SDS011;9931;51.458;7.256;2023-06-26T08:48:45;16.10;;;2.35;;
19569;SDS011;9931;51.458;7.256;2023-06-26T08:51:13;15.23;;;1.85;;
19569;SDS011;9931;51.458;7.256;2023-06-26T08:53:57;15.70;;;1.90;;
19569;SDS011;9931;51.458;7.256;2023-06-26T08:56:22;20.98;;;2.22;;
19569;SDS011;9931;51.458;7.256;2023-06-26T08:58:49;13.20;;;1.95;;
19569;SDS011;9931;51.458;7.256;2023-06-26T09:01:14;20.70;;;2.30;;
19569;SDS011;9931;51.458;7.256;2023-06-26T09:03:39;17.58;;;2.42;;
19569;SDS011;9931;51.458;7.256;2023-06-26T09:06:06;49.67;;;5.13;;
19569;SDS011;9931;51.458;7.256;2023-06-26T09:08:31;16.63;;;2.83;;
19569;SDS011;9931;51.458;7.256;2023-06-26T09:10:56;18.13;;;2.23;;
19569;SDS011;9931;51.458;7.256;2023-06-26T09:13:22;23.77;;;2.40;;
19569;SDS011;9931;51.458;7.256;2023-06-26T09:15:47;33.95;;;3.17;;
19569;SDS011;9931;51.458;7.256;2023-06-26T09:18:12;16.97;;;2.03;;
19569;SDS011;9931;51.458;7.256;2023-06-26T09:20:38;18.20;;;2.33;;
19569;SDS011;9931;51.458;7.256;2023-06-26T09:23:03;4.38;;;1.30;;
19569;SDS011;9931;51.458;7.256;2023-06-26T09:25:29;27.45;;;3.22;;
19569;SDS011;9931;51.458;7.256;2023-06-26T09:27:55;25.58;;;3.33;;
19569;SDS011;9931;51.458;7.256;2023-06-26T09:30:20;26.17;;;3.33;;
19569;SDS011;9931;51.458;7.256;2023-06-26T09:32:46;18.88;;;3.38;;
19569;SDS011;9931;51.458;7.256;2023-06-26T09:35:11;19.73;;;2.83;;
19569;SDS011;9931;51.458;7.256;2023-06-26T09:37:37;28.33;;;3.83;;
19569;SDS011;9931;51.458;7.256;2023-06-26T09:40:03;6.30;;;2.28;;
19569;SDS011;9931;51.458;7.256;2023-06-26T09:42:29;35.78;;;4.32;;
19569;SDS011;9931;51.458;7.256;2023-06-26T09:44:55;20.23;;;2.70;;
19569;SDS011;9931;51.458;7.256;2023-06-26T09:47:20;30.48;;;4.18;;
19569;SDS011;9931;51.458;7.256;2023-06-26T09:49:46;39.55;;;5.10;;
19569;SDS011;9931;51.458;7.256;2023-06-26T09:52:13;23.80;;;4.82;;
19569;SDS011;9931;51.458;7.256;2023-06-26T09:54:40;20.80;;;3.90;;
19569;SDS011;9931;51.458;7.256;2023-06-26T09:57:09;20.00;;;3.83;;
19569;SDS011;9931;51.458;7.256;2023-06-26T09:59:34;19.05;;;3.28;;
19569;SDS011;9931;51.458;7.256;2023-06-26T10:02:00;21.77;;;3.08;;
19569;SDS011;9931;51.458;7.256;2023-06-26T10:04:25;17.55;;;2.17;;
19569;SDS011;9931;51.458;7.256;2023-06-26T10:06:51;8.13;;;1.90;;
19569;SDS011;9931;51.458;7.256;2023-06-26T10:09:17;20.60;;;2.88;;
19569;SDS011;9931;51.458;7.256;2023-06-26T10:11:46;15.27;;;3.60;;
19569;SDS011;9931;51.458;7.256;2023-06-26T10:14:12;21.77;;;3.42;;
19569;SDS011;9931;51.458;7.256;2023-06-26T10:16:38;13.65;;;2.42;;
19569;SDS011;9931;51.458;7.256;2023-06-26T10:19:05;21.45;;;3.67;;
19569;SDS011;9931;51.458;7.256;2023-06-26T10:21:31;19.60;;;4.22;;
19569;SDS011;9931;51.458;7.256;2023-06-26T10:23:58;20.27;;;4.22;;
19569;SDS011;9931;51.458;7.256;2023-06-26T10:26:24;24.42;;;4.32;;
19569;SDS011;9931;51.458;7.256;2023-06-26T10:28:50;14.77;;;3.10;;
19569;SDS011;9931;51.458;7.256;2023-06-26T10:31:17;20.63;;;4.07;;
19569;SDS011;9931;51.458;7.256;2023-06-26T10:33:44;15.23;;;5.43;;
19569;SDS011;9931;51.458;7.256;2023-06-26T10:36:13;17.33;;;6.13;;
19569;SDS011;9931;51.458;7.256;2023-06-26T10:38:58;22.80;;;6.90;;
19569;SDS011;9931;51.458;7.256;2023-06-26T10:41:23;20.10;;;6.38;;
19569;SDS011;9931;51.458;7.256;2023-06-26T10:43:50;17.55;;;6.00;;
19569;SDS011;9931;51.458;7.256;2023-06-26T10:46:15;21.67;;;5.68;;
19569;SDS011;9931;51.458;7.256;2023-06-26T10:48:59;8.20;;;4.03;;
19569;SDS011;9931;51.458;7.256;2023-06-26T10:51:25;16.42;;;3.60;;
19569;SDS011;9931;51.458;7.256;2023-06-26T10:53:54;19.08;;;3.05;;
19569;SDS011;9931;51.458;7.256;2023-06-26T10:56:20;19.15;;;3.63;;
19569;SDS011;9931;51.458;7.256;2023-06-26T10:58:45;18.83;;;2.83;;
19569;SDS011;9931;51.458;7.256;2023-06-26T11:03:59;16.77;;;3.72;;
19569;SDS011;9931;51.458;7.256;2023-06-26T11:06:28;26.92;;;3.97;;
19569;SDS011;9931;51.458;7.256;2023-06-26T11:08:55;20.00;;;3.45;;
19569;SDS011;9931;51.458;7.256;2023-06-26T11:11:54;15.27;;;4.63;;
19569;SDS011;9931;51.458;7.256;2023-06-26T11:14:09;12.95;;;3.22;;
19569;SDS011;9931;51.458;7.256;2023-06-26T11:16:35;12.95;;;2.70;;
19569;SDS011;9931;51.458;7.256;2023-06-26T11:19:00;15.37;;;3.23;;
19569;SDS011;9931;51.458;7.256;2023-06-26T11:21:25;16.90;;;5.70;;
19569;SDS011;9931;51.458;7.256;2023-06-26T11:23:51;18.35;;;8.07;;
19569;SDS011;9931;51.458;7.256;2023-06-26T11:26:19;27.85;;;15.90;;
19569;SDS011;9931;51.458;7.256;2023-06-26T11:33:50;18.38;;;4.43;;
19569;SDS011;9931;51.458;7.256;2023-06-26T11:36:16;20.20;;;3.00;;
19569;SDS011;9931;51.458;7.256;2023-06-26T11:38:41;27.40;;;2.90;;
19569;SDS011;9931;51.458;7.256;2023-06-26T11:41:06;17.87;;;2.07;;
19569;SDS011;9931;51.458;7.256;2023-06-26T11:43:33;18.98;;;3.47;;
19569;SDS011;9931;51.458;7.256;2023-06-26T11:45:59;51.85;;;6.57;;
19569;SDS011;9931;51.458;7.256;2023-06-26T11:48:25;16.77;;;5.82;;
19569;SDS011;9931;51.458;7.256;2023-06-26T11:50:50;7.18;;;3.60;;
19569;SDS011;9931;51.458;7.256;2023-06-26T11:53:16;20.77;;;4.03;;
19569;SDS011;9931;51.458;7.256;2023-06-26T11:55:41;9.02;;;3.60;;
19569;SDS011;9931;51.458;7.256;2023-06-26T11:58:09;17.35;;;3.88;;
19569;SDS011;9931;51.458;7.256;2023-06-26T12:00:35;8.48;;;7.10;;
19569;SDS011;9931;51.458;7.256;2023-06-26T12:03:00;19.45;;;8.82;;
19569;SDS011;9931;51.458;7.256;2023-06-26T12:05:26;19.52;;;8.32;;
19569;SDS011;9931;51.458;7.256;2023-06-26T12:07:51;15.80;;;7.57;;
19569;SDS011;9931;51.458;7.256;2023-06-26T12:10:16;6.82;;;5.30;;
19569;SDS011;9931;51.458;7.256;2023-06-26T12:12:42;16.40;;;6.43;;
19569;SDS011;9931;51.458;7.256;2023-06-26T12:15:07;14.80;;;5.57;;
19569;SDS011;9931;51.458;7.256;2023-06-26T12:17:33;38.20;;;5.82;;
19569;SDS011;9931;51.458;7.256;2023-06-26T12:20:01;19.90;;;4.65;;
19569;SDS011;9931;51.458;7.256;2023-06-26T12:22:33;20.80;;;5.32;;
19569;SDS011;9931;51.458;7.256;2023-06-26T12:24:59;13.05;;;4.90;;
19569;SDS011;9931;51.458;7.256;2023-06-26T12:27:24;30.58;;;6.22;;
19569;SDS011;9931;51.458;7.256;2023-06-26T12:29:51;16.88;;;4.53;;
19569;SDS011;9931;51.458;7.256;2023-06-26T12:32:17;20.17;;;6.97;;
19569;SDS011;9931;51.458;7.256;2023-06-26T12:34:46;8.13;;;4.78;;
19569;SDS011;9931;51.458;7.256;2023-06-26T12:37:11;16.17;;;4.40;;
19569;SDS011;9931;51.458;7.256;2023-06-26T12:39:59;19.60;;;5.40;;
19569;SDS011;9931;51.458;7.256;2023-06-26T12:42:24;19.30;;;4.30;;
19569;SDS011;9931;51.458;7.256;2023-06-26T12:44:50;13.32;;;3.53;;
19569;SDS011;9931;51.458;7.256;2023-06-26T12:47:16;16.50;;;6.28;;
19569;SDS011;9931;51.458;7.256;2023-06-26T12:49:43;34.60;;;12.05;;
19569;SDS011;9931;51.458;7.256;2023-06-26T12:52:09;20.95;;;14.43;;
19569;SDS011;9931;51.458;7.256;2023-06-26T12:54:35;12.23;;;11.13;;
19569;SDS011;9931;51.458;7.256;2023-06-26T12:57:01;18.30;;;10.30;;
19569;SDS011;9931;51.458;7.256;2023-06-26T12:59:26;23.45;;;9.73;;
19569;SDS011;9931;51.458;7.256;2023-06-26T13:01:52;21.60;;;12.30;;
19569;SDS011;9931;51.458;7.256;2023-06-26T13:04:18;21.33;;;14.13;;
19569;SDS011;9931;51.458;7.256;2023-06-26T13:06:43;17.42;;;10.70;;
19569;SDS011;9931;51.458;7.256;2023-06-26T13:09:09;19.40;;;11.10;;
19569;SDS011;9931;51.458;7.256;2023-06-26T13:11:36;17.80;;;6.00;;
19569;SDS011;9931;51.458;7.256;2023-06-26T13:14:02;20.08;;;5.10;;
19569;SDS011;9931;51.458;7.256;2023-06-26T13:16:27;16.13;;;4.75;;
19569;SDS011;9931;51.458;7.256;2023-06-26T13:18:52;15.32;;;6.97;;
19569;SDS011;9931;51.458;7.256;2023-06-26T13:21:17;15.73;;;7.03;;
19569;SDS011;9931;51.458;7.256;2023-06-26T13:23:43;6.47;;;6.07;;
19569;SDS011;9931;51.458;7.256;2023-06-26T13:26:09;62.53;;;9.40;;
19569;SDS011;9931;51.458;7.256;2023-06-26T13:28:35;19.70;;;5.95;;
19569;SDS011;9931;51.458;7.256;2023-06-26T13:31:00;17.45;;;5.15;;
19569;SDS011;9931;51.458;7.256;2023-06-26T13:33:25;18.45;;;3.97;;
19569;SDS011;9931;51.458;7.256;2023-06-26T13:35:51;14.43;;;3.38;;
19569;SDS011;9931;51.458;7.256;2023-06-26T13:38:17;21.75;;;3.78;;
19569;SDS011;9931;51.458;7.256;2023-06-26T13:40:42;13.88;;;3.22;;
19569;SDS011;9931;51.458;7.256;2023-06-26T13:43:07;24.97;;;4.70;;
19569;SDS011;9931;51.458;7.256;2023-06-26T13:45:33;18.65;;;4.00;;
19569;SDS011;9931;51.458;7.256;2023-06-26T13:47:58;13.70;;;3.10;;
19569;SDS011;9931;51.458;7.256;2023-06-26T13:50:23;19.75;;;3.67;;
19569;SDS011;9931;51.458;7.256;2023-06-26T13:52:48;16.73;;;2.73;;
19569;SDS011;9931;51.458;7.256;2023-06-26T13:55:14;13.27;;;3.50;;
19569;SDS011;9931;51.458;7.256;2023-06-26T13:57:39;19.25;;;4.40;;
19569;SDS011;9931;51.458;7.256;2023-06-26T14:00:06;17.17;;;3.88;;
19569;SDS011;9931;51.458;7.256;2023-06-26T14:02:32;15.05;;;3.83;;
19569;SDS011;9931;51.458;7.256;2023-06-26T14:04:57;17.15;;;3.88;;
19569;SDS011;9931;51.458;7.256;2023-06-26T14:07:23;35.53;;;4.00;;
19569;SDS011;9931;51.458;7.256;2023-06-26T14:09:48;83.18;;;7.60;;
19569;SDS011;9931;51.458;7.256;2023-06-26T14:12:13;14.30;;;3.10;;
19569;SDS011;9931;51.458;7.256;2023-06-26T14:14:38;17.70;;;2.57;;
19569;SDS011;9931;51.458;7.256;2023-06-26T14:17:04;14.13;;;2.73;;
19569;SDS011;9931;51.458;7.256;2023-06-26T14:19:30;30.88;;;4.05;;
19569;SDS011;9931;51.458;7.256;2023-06-26T14:21:56;21.63;;;3.03;;
19569;SDS011;9931;51.458;7.256;2023-06-26T14:24:21;15.73;;;2.10;;
19569;SDS011;9931;51.458;7.256;2023-06-26T14:26:46;19.67;;;2.37;;
19569;SDS011;9931;51.458;7.256;2023-06-26T14:29:11;15.77;;;2.23;;
19569;SDS011;9931;51.458;7.256;2023-06-26T14:31:37;1.92;;;0.95;;
19569;SDS011;9931;51.458;7.256;2023-06-26T14:34:03;11.50;;;1.70;;
19569;SDS011;9931;51.458;7.256;2023-06-26T14:36:28;6.53;;;1.33;;
19569;SDS011;9931;51.458;7.256;2023-06-26T14:38:56;14.13;;;1.92;;
19569;SDS011;9931;51.458;7.256;2023-06-26T14:41:21;18.00;;;2.28;;
19569;SDS011;9931;51.458;7.256;2023-06-26T14:43:46;12.10;;;1.83;;
19569;SDS011;9931;51.458;7.256;2023-06-26T14:46:11;5.03;;;1.30;;
19569;SDS011;9931;51.458;7.256;2023-06-26T14:48:37;4.95;;;1.40;;
19569;SDS011;9931;51.458;7.256;2023-06-26T14:51:02;14.97;;;1.90;;